createdAt,value
2018-03-26T00:00:30.952Z,1006.50
2018-03-26T00:01:30.968Z,1006.54
2018-03-26T00:02:30.985Z,1006.51
2018-03-26T00:03:30.998Z,1006.51
2018-03-26T00:04:31.010Z,1006.45
2018-03-26T00:05:31.020Z,1006.49
2018-03-26T00:07:31.294Z,1006.50
2018-03-26T00:08:31.276Z,1006.53
2018-03-26T00:09:31.076Z,1006.48
2018-03-26T00:10:31.099Z,1006.55
2018-03-26T00:11:31.107Z,1006.52
2018-03-26T00:12:31.117Z,1006.58
2018-03-26T00:13:31.178Z,1006.60
2018-03-26T00:14:31.149Z,1006.53
2018-03-26T00:15:31.775Z,1006.60
2018-03-26T00:16:31.563Z,1006.60
2018-03-26T00:17:31.181Z,1006.62
2018-03-26T00:18:31.199Z,1006.61
2018-03-26T00:19:31.207Z,1006.62
2018-03-26T00:20:31.225Z,1006.63
2018-03-26T00:21:31.235Z,1006.64
2018-03-26T00:22:31.249Z,1006.58
2018-03-26T00:23:31.264Z,1006.61
2018-03-26T00:24:31.275Z,1006.62
2018-03-26T00:25:31.289Z,1006.60
2018-03-26T00:26:31.302Z,1006.61
2018-03-26T00:27:31.315Z,1006.62
2018-03-26T00:28:31.330Z,1006.61
2018-03-26T00:29:31.344Z,1006.62
2018-03-26T00:30:31.354Z,1006.60
2018-03-26T00:31:31.367Z,1006.64
2018-03-26T00:32:31.388Z,1006.64
2018-03-26T00:33:31.394Z,1006.62
2018-03-26T00:34:31.412Z,1006.65
2018-03-26T00:35:31.423Z,1006.61
2018-03-26T00:36:31.436Z,1006.64
2018-03-26T00:37:31.450Z,1006.63
2018-03-26T00:38:31.464Z,1006.62
2018-03-26T00:39:31.748Z,1006.61
2018-03-26T00:40:31.561Z,1006.62
2018-03-26T00:41:31.502Z,1006.60
2018-03-26T00:42:31.519Z,1006.61
2018-03-26T00:43:31.530Z,1006.62
2018-03-26T00:44:31.541Z,1006.62
2018-03-26T00:45:31.556Z,1006.64
2018-03-26T00:46:31.821Z,1006.63
2018-03-26T00:47:31.586Z,1006.63
2018-03-26T00:48:31.600Z,1006.65
2018-03-26T00:49:31.611Z,1006.67
2018-03-26T00:50:31.624Z,1006.64
2018-03-26T00:51:31.637Z,1006.63
2018-03-26T00:52:31.650Z,1006.67
2018-03-26T00:53:31.662Z,1006.74
2018-03-26T00:54:31.678Z,1006.73
2018-03-26T00:55:31.691Z,1006.74
2018-03-26T00:56:31.702Z,1006.76
2018-03-26T00:57:31.718Z,1006.74
2018-03-26T00:58:31.730Z,1006.74
2018-03-26T00:59:31.745Z,1006.75
2018-03-26T01:00:31.757Z,1006.76
2018-03-26T01:01:31.772Z,1006.80
2018-03-26T01:02:31.788Z,1006.77
2018-03-26T01:03:31.800Z,1006.81
2018-03-26T01:04:31.810Z,1006.82
2018-03-26T01:05:31.825Z,1006.80
2018-03-26T01:06:31.838Z,1006.78
2018-03-26T01:07:31.850Z,1006.79
2018-03-26T01:08:31.913Z,1006.78
2018-03-26T01:10:32.094Z,1006.80
2018-03-26T01:11:31.905Z,1006.77
2018-03-26T01:12:31.918Z,1006.77
2018-03-26T01:13:31.930Z,1006.79
2018-03-26T01:14:31.944Z,1006.82
2018-03-26T01:15:31.962Z,1006.80
2018-03-26T01:16:31.980Z,1006.84
2018-03-26T01:17:32.188Z,1006.79
2018-03-26T01:18:32.030Z,1006.78
2018-03-26T01:19:32.018Z,1006.79
2018-03-26T01:20:32.025Z,1006.79
2018-03-26T01:21:32.037Z,1006.82
2018-03-26T01:22:32.050Z,1006.83
2018-03-26T01:23:32.065Z,1006.85
2018-03-26T01:24:32.074Z,1006.83
2018-03-26T01:25:32.087Z,1006.87
2018-03-26T01:26:32.104Z,1006.86
2018-03-26T01:27:32.114Z,1006.84
2018-03-26T01:28:32.129Z,1006.87
2018-03-26T01:29:32.139Z,1006.88
2018-03-26T01:30:32.157Z,1006.90
2018-03-26T01:31:32.172Z,1006.89
2018-03-26T01:32:32.191Z,1006.92
2018-03-26T01:33:32.194Z,1006.95
2018-03-26T01:34:32.244Z,1006.88
2018-03-26T01:35:32.224Z,1006.90
2018-03-26T01:36:32.233Z,1006.93
2018-03-26T01:37:32.247Z,1006.93
2018-03-26T01:38:32.258Z,1007.00
2018-03-26T01:39:32.271Z,1007.01
2018-03-26T01:40:32.286Z,1006.98
2018-03-26T01:41:32.400Z,1007.02
2018-03-26T01:42:32.566Z,1007.02
2018-03-26T01:43:32.328Z,1007.03
2018-03-26T01:44:32.338Z,1007.08
2018-03-26T01:45:32.352Z,1007.03
2018-03-26T01:46:32.363Z,1007.04
2018-03-26T01:47:32.377Z,1007.06
2018-03-26T01:48:32.398Z,1007.08
2018-03-26T01:49:32.403Z,1007.11
2018-03-26T01:50:32.418Z,1007.06
2018-03-26T01:51:32.430Z,1007.11
2018-03-26T01:52:32.446Z,1007.06
2018-03-26T01:54:32.516Z,1007.11
2018-03-26T01:55:32.488Z,1007.15
2018-03-26T01:56:32.551Z,1007.15
2018-03-26T01:57:32.523Z,1007.13
2018-03-26T01:58:32.523Z,1007.16
2018-03-26T01:59:32.534Z,1007.20
2018-03-26T02:00:32.548Z,1007.23
2018-03-26T02:01:32.562Z,1007.23
2018-03-26T02:02:32.572Z,1007.26
2018-03-26T02:03:32.586Z,1007.25
2018-03-26T02:04:32.601Z,1007.24
2018-03-26T02:05:32.616Z,1007.26
2018-03-26T02:06:32.625Z,1007.29
2018-03-26T02:07:32.643Z,1007.30
2018-03-26T02:08:32.656Z,1007.35
2018-03-26T02:09:32.664Z,1007.29
2018-03-26T02:10:32.681Z,1007.30
2018-03-26T02:11:32.692Z,1007.34
2018-03-26T02:12:32.704Z,1007.30
2018-03-26T02:13:32.818Z,1007.33
2018-03-26T02:15:33.021Z,1007.35
2018-03-26T02:16:32.756Z,1007.33
2018-03-26T02:17:32.769Z,1007.33
2018-03-26T02:18:32.783Z,1007.33
2018-03-26T02:19:32.830Z,1007.36
2018-03-26T02:20:32.808Z,1007.32
2018-03-26T02:21:32.828Z,1007.32
2018-03-26T02:22:32.936Z,1007.29
2018-03-26T02:23:33.109Z,1007.38
2018-03-26T02:24:32.886Z,1007.35
2018-03-26T02:25:32.879Z,1007.34
2018-03-26T02:26:32.886Z,1007.33
2018-03-26T02:27:32.901Z,1007.32
2018-03-26T02:28:32.915Z,1007.37
2018-03-26T02:29:33.073Z,1007.38
2018-03-26T02:30:32.935Z,1007.36
2018-03-26T02:31:32.951Z,1007.40
2018-03-26T02:32:32.960Z,1007.41
2018-03-26T02:33:32.971Z,1007.42
2018-03-26T02:34:32.983Z,1007.45
2018-03-26T02:35:32.996Z,1007.44
2018-03-26T02:36:33.011Z,1007.45
2018-03-26T02:37:33.020Z,1007.43
2018-03-26T02:38:33.035Z,1007.48
2018-03-26T02:39:33.046Z,1007.42
2018-03-26T02:40:33.060Z,1007.42
2018-03-26T02:41:33.074Z,1007.42
2018-03-26T02:42:33.090Z,1007.49
2018-03-26T02:43:33.107Z,1007.44
2018-03-26T02:44:33.119Z,1007.45
2018-03-26T02:45:33.127Z,1007.44
2018-03-26T02:47:33.402Z,1007.51
2018-03-26T02:48:33.195Z,1007.52
2018-03-26T02:49:33.179Z,1007.55
2018-03-26T02:50:33.188Z,1007.54
2018-03-26T02:51:33.206Z,1007.53
2018-03-26T02:52:33.216Z,1007.54
2018-03-26T02:53:33.231Z,1007.53
2018-03-26T02:54:33.292Z,1007.51
2018-03-26T02:56:33.269Z,1007.53
2018-03-26T02:57:33.280Z,1007.51
2018-03-26T02:58:33.294Z,1007.51
2018-03-26T02:59:33.313Z,1007.54
2018-03-26T03:00:33.319Z,1007.54
2018-03-26T03:01:33.337Z,1007.53
2018-03-26T03:02:33.345Z,1007.49
2018-03-26T03:03:33.359Z,1007.52
2018-03-26T03:04:33.370Z,1007.53
2018-03-26T03:05:33.384Z,1007.57
2018-03-26T03:06:33.396Z,1007.56
2018-03-26T03:07:33.408Z,1007.54
2018-03-26T03:08:33.420Z,1007.57
2018-03-26T03:09:33.435Z,1007.56
2018-03-26T03:10:33.491Z,1007.55
2018-03-26T03:11:33.460Z,1007.60
2018-03-26T03:12:33.473Z,1007.58
2018-03-26T03:13:33.486Z,1007.57
2018-03-26T03:14:33.497Z,1007.55
2018-03-26T03:15:33.513Z,1007.54
2018-03-26T03:16:33.561Z,1007.55
2018-03-26T03:17:33.588Z,1007.55
2018-03-26T03:18:33.549Z,1007.59
2018-03-26T03:20:33.838Z,1007.60
2018-03-26T03:21:33.586Z,1007.60
2018-03-26T03:22:33.672Z,1007.57
2018-03-26T03:23:33.613Z,1007.57
2018-03-26T03:24:33.624Z,1007.53
2018-03-26T03:25:33.637Z,1007.53
2018-03-26T03:26:33.662Z,1007.56
2018-03-26T03:27:33.666Z,1007.52
2018-03-26T03:29:34.136Z,1007.54
2018-03-26T03:30:33.701Z,1007.56
2018-03-26T03:31:33.716Z,1007.57
2018-03-26T03:32:33.726Z,1007.61
2018-03-26T03:33:33.750Z,1007.61
2018-03-26T03:34:33.752Z,1007.62
2018-03-26T03:35:33.768Z,1007.61
2018-03-26T03:36:33.779Z,1007.61
2018-03-26T03:37:33.789Z,1007.62
2018-03-26T03:38:33.804Z,1007.65
2018-03-26T03:39:33.814Z,1007.64
2018-03-26T03:40:33.827Z,1007.66
2018-03-26T03:41:33.839Z,1007.61
2018-03-26T03:42:33.861Z,1007.62
2018-03-26T03:43:33.871Z,1007.59
2018-03-26T03:44:33.879Z,1007.58
2018-03-26T03:45:33.900Z,1007.61
2018-03-26T03:46:33.905Z,1007.64
2018-03-26T03:47:33.918Z,1007.72
2018-03-26T03:48:33.934Z,1007.70
2018-03-26T03:49:34.041Z,1007.69
2018-03-26T03:50:34.207Z,1007.69
2018-03-26T03:51:33.968Z,1007.67
2018-03-26T03:52:33.992Z,1007.66
2018-03-26T03:53:33.991Z,1007.70
2018-03-26T03:54:34.008Z,1007.71
2018-03-26T03:55:34.036Z,1007.68
2018-03-26T03:56:34.042Z,1007.69
2018-03-26T03:57:34.047Z,1007.68
2018-03-26T03:58:34.053Z,1007.70
2018-03-26T04:00:34.393Z,1007.67
2018-03-26T04:01:34.093Z,1007.66
2018-03-26T04:02:34.118Z,1007.65
2018-03-26T04:03:34.118Z,1007.67
2018-03-26T04:04:34.135Z,1007.66
2018-03-26T04:05:34.144Z,1007.68
2018-03-26T04:06:34.159Z,1007.63
2018-03-26T04:07:34.169Z,1007.64
2018-03-26T04:08:34.181Z,1007.71
2018-03-26T04:09:34.249Z,1007.66
2018-03-26T04:10:34.212Z,1007.66
2018-03-26T04:11:34.220Z,1007.67
2018-03-26T04:12:34.237Z,1007.73
2018-03-26T04:13:34.245Z,1007.68
2018-03-26T04:14:34.256Z,1007.71
2018-03-26T04:15:34.272Z,1007.71
2018-03-26T04:16:34.284Z,1007.75
2018-03-26T04:17:34.298Z,1007.75
2018-03-26T04:18:34.306Z,1007.76
2018-03-26T04:19:34.319Z,1007.75
2018-03-26T04:20:34.332Z,1007.78
2018-03-26T04:21:34.343Z,1007.75
2018-03-26T04:22:34.361Z,1007.78
2018-03-26T04:23:34.483Z,1007.76
2018-03-26T04:24:34.625Z,1007.79
2018-03-26T04:25:34.404Z,1007.80
2018-03-26T04:26:34.406Z,1007.80
2018-03-26T04:27:34.418Z,1007.85
2018-03-26T04:28:34.436Z,1007.78
2018-03-26T04:29:34.444Z,1007.82
2018-03-26T04:30:34.455Z,1007.85
2018-03-26T04:31:34.653Z,1007.89
2018-03-26T04:33:34.496Z,1007.90
2018-03-26T04:34:34.508Z,1007.89
2018-03-26T04:35:34.519Z,1007.92
2018-03-26T04:36:34.535Z,1007.87
2018-03-26T04:37:34.547Z,1007.89
2018-03-26T04:38:34.558Z,1007.89
2018-03-26T04:39:34.571Z,1007.87
2018-03-26T04:40:34.585Z,1007.91
2018-03-26T04:41:34.604Z,1007.92
2018-03-26T04:42:34.610Z,1007.94
2018-03-26T04:43:34.621Z,1007.95
2018-03-26T04:44:34.634Z,1007.96
2018-03-26T04:45:34.645Z,1007.94
2018-03-26T04:46:34.657Z,1007.97
2018-03-26T04:47:34.673Z,1007.96
2018-03-26T04:48:34.692Z,1007.94
2018-03-26T04:49:34.696Z,1007.90
2018-03-26T04:50:34.708Z,1007.92
2018-03-26T04:51:34.726Z,1007.94
2018-03-26T04:52:34.736Z,1007.95
2018-03-26T04:53:34.748Z,1007.95
2018-03-26T04:54:34.759Z,1007.94
2018-03-26T04:55:34.924Z,1007.95
2018-03-26T04:56:35.039Z,1007.97
2018-03-26T04:57:35.343Z,1007.97
2018-03-26T04:58:34.811Z,1008.00
2018-03-26T04:59:34.826Z,1007.98
2018-03-26T05:00:34.839Z,1007.99
2018-03-26T05:01:34.848Z,1008.00
2018-03-26T05:02:34.859Z,1008.03
2018-03-26T05:03:34.888Z,1008.04
2018-03-26T05:04:35.087Z,1008.03
2018-03-26T05:05:34.900Z,1008.07
2018-03-26T05:06:34.909Z,1008.06
2018-03-26T05:07:34.937Z,1008.08
2018-03-26T05:08:34.967Z,1008.12
2018-03-26T05:09:35.670Z,1008.13
2018-03-26T05:10:34.961Z,1008.09
2018-03-26T05:11:34.999Z,1008.10
2018-03-26T05:12:34.993Z,1008.08
2018-03-26T05:13:34.998Z,1008.10
2018-03-26T05:14:35.011Z,1008.13
2018-03-26T05:15:35.029Z,1008.11
2018-03-26T05:16:35.040Z,1008.12
2018-03-26T05:17:35.058Z,1008.12
2018-03-26T05:18:35.064Z,1008.15
2018-03-26T05:19:35.078Z,1008.16
2018-03-26T05:20:35.086Z,1008.19
2018-03-26T05:21:35.108Z,1008.23
2018-03-26T05:22:35.120Z,1008.24
2018-03-26T05:23:35.157Z,1008.23
2018-03-26T05:24:35.206Z,1008.25
2018-03-26T05:25:35.182Z,1008.23
2018-03-26T05:26:35.180Z,1008.28
2018-03-26T05:27:35.180Z,1008.31
2018-03-26T05:28:35.309Z,1008.29
2018-03-26T05:29:35.197Z,1008.34
2018-03-26T05:30:35.223Z,1008.35
2018-03-26T05:31:35.225Z,1008.33
2018-03-26T05:32:35.236Z,1008.33
2018-03-26T05:33:35.254Z,1008.41
2018-03-26T05:34:35.265Z,1008.39
2018-03-26T05:35:35.279Z,1008.38
2018-03-26T05:36:35.286Z,1008.38
2018-03-26T05:37:35.303Z,1008.43
2018-03-26T05:38:35.402Z,1008.43
2018-03-26T05:39:35.325Z,1008.47
2018-03-26T05:40:35.542Z,1008.49
2018-03-26T05:41:35.364Z,1008.50
2018-03-26T05:42:35.366Z,1008.49
2018-03-26T05:43:35.378Z,1008.58
2018-03-26T05:44:35.387Z,1008.57
2018-03-26T05:45:35.398Z,1008.58
2018-03-26T05:46:35.411Z,1008.62
2018-03-26T05:47:35.425Z,1008.63
2018-03-26T05:48:35.615Z,1008.62
2018-03-26T05:49:35.445Z,1008.64
2018-03-26T05:50:35.684Z,1008.64
2018-03-26T05:51:35.477Z,1008.64
2018-03-26T05:52:35.503Z,1008.69
2018-03-26T05:53:35.627Z,1008.72
2018-03-26T05:54:35.515Z,1008.78
2018-03-26T05:55:35.528Z,1008.71
2018-03-26T05:56:35.769Z,1008.76
2018-03-26T05:57:35.786Z,1008.79
2018-03-26T05:58:35.566Z,1008.81
2018-03-26T05:59:35.576Z,1008.80
2018-03-26T06:00:35.588Z,1008.86
2018-03-26T06:01:35.595Z,1008.86
2018-03-26T06:02:35.992Z,1008.86
2018-03-26T06:03:35.763Z,1008.89
2018-03-26T06:04:35.647Z,1008.92
2018-03-26T06:05:35.647Z,1008.89
2018-03-26T06:06:35.681Z,1008.92
2018-03-26T06:07:35.675Z,1008.91
2018-03-26T06:08:35.696Z,1008.89
2018-03-26T06:09:35.696Z,1008.98
2018-03-26T06:10:35.708Z,1008.98
2018-03-26T06:11:35.728Z,1009.00
2018-03-26T06:12:35.740Z,1008.97
2018-03-26T06:13:35.753Z,1009.00
2018-03-26T06:15:35.784Z,1009.01
2018-03-26T06:16:35.784Z,1009.06
2018-03-26T06:17:35.797Z,1009.10
2018-03-26T06:18:35.820Z,1009.05
2018-03-26T06:19:35.821Z,1009.08
2018-03-26T06:20:35.839Z,1009.07
2018-03-26T06:21:35.845Z,1009.07
2018-03-26T06:22:36.182Z,1009.12
2018-03-26T06:23:35.872Z,1009.13
2018-03-26T06:24:35.883Z,1009.06
2018-03-26T06:25:35.900Z,1009.08
2018-03-26T06:26:35.935Z,1009.06
2018-03-26T06:27:35.926Z,1009.07
2018-03-26T06:28:35.931Z,1009.06
2018-03-26T06:29:35.953Z,1009.11
2018-03-26T06:30:36.131Z,1009.13
2018-03-26T06:31:36.354Z,1009.13
2018-03-26T06:32:36.183Z,1009.14
2018-03-26T06:35:36.019Z,1009.17
2018-03-26T06:36:36.033Z,1009.18
2018-03-26T06:37:36.076Z,1009.17
2018-03-26T06:38:36.059Z,1009.18
2018-03-26T06:39:36.811Z,1009.22
2018-03-26T06:40:36.082Z,1009.24
2018-03-26T06:42:36.155Z,1009.27
2018-03-26T06:43:36.453Z,1009.25
2018-03-26T06:44:36.517Z,1009.32
2018-03-26T06:45:36.148Z,1009.34
2018-03-26T06:46:36.156Z,1009.35
2018-03-26T06:47:36.169Z,1009.36
2018-03-26T06:48:36.217Z,1009.37
2018-03-26T06:49:36.225Z,1009.34
2018-03-26T06:50:36.217Z,1009.38
2018-03-26T06:51:36.218Z,1009.40
2018-03-26T06:52:36.227Z,1009.35
2018-03-26T06:53:36.242Z,1009.40
2018-03-26T06:54:36.266Z,1009.37
2018-03-26T06:55:36.287Z,1009.40
2018-03-26T06:56:36.608Z,1009.49
2018-03-26T06:57:36.368Z,1009.49
2018-03-26T06:59:36.317Z,1009.53
2018-03-26T07:00:36.332Z,1009.55
2018-03-26T07:01:36.339Z,1009.55
2018-03-26T07:02:36.355Z,1009.59
2018-03-26T07:03:36.365Z,1009.59
2018-03-26T07:04:36.384Z,1009.56
2018-03-26T07:06:36.667Z,1009.59
2018-03-26T07:07:36.461Z,1009.62
2018-03-26T07:08:36.422Z,1009.63
2018-03-26T07:09:36.437Z,1009.66
2018-03-26T07:10:36.626Z,1009.64
2018-03-26T07:11:36.522Z,1009.68
2018-03-26T07:12:37.106Z,1009.69
2018-03-26T07:13:37.191Z,1009.70
2018-03-26T07:14:36.641Z,1009.74
2018-03-26T07:15:36.657Z,1009.75
2018-03-26T07:16:37.125Z,1009.72
2018-03-26T07:17:37.107Z,1009.77
2018-03-26T07:18:36.545Z,1009.72
2018-03-26T07:19:36.555Z,1009.74
2018-03-26T07:20:36.733Z,1009.72
2018-03-26T07:21:36.665Z,1009.73
2018-03-26T07:22:36.594Z,1009.74
2018-03-26T07:23:36.606Z,1009.75
2018-03-26T07:24:36.622Z,1009.77
2018-03-26T07:25:36.633Z,1009.79
2018-03-26T07:26:36.650Z,1009.80
2018-03-26T07:27:36.660Z,1009.82
2018-03-26T07:28:36.674Z,1009.79
2018-03-26T07:29:36.690Z,1009.80
2018-03-26T07:30:36.705Z,1009.83
2018-03-26T07:31:36.704Z,1009.78
2018-03-26T07:32:36.757Z,1009.85
2018-03-26T07:33:36.731Z,1009.82
2018-03-26T07:34:37.972Z,1009.85
2018-03-26T07:35:36.758Z,1009.82
2018-03-26T07:36:36.778Z,1009.85
2018-03-26T07:37:36.777Z,1009.89
2018-03-26T07:40:36.904Z,1009.89
2018-03-26T07:41:36.839Z,1009.89
2018-03-26T07:42:36.844Z,1009.93
2018-03-26T07:43:36.869Z,1009.90
2018-03-26T07:44:36.867Z,1009.92
2018-03-26T07:45:37.028Z,1009.89
2018-03-26T07:46:37.578Z,1009.92
2018-03-26T07:47:37.812Z,1009.91
2018-03-26T07:48:36.922Z,1009.86
2018-03-26T07:49:36.943Z,1009.89
2018-03-26T07:50:36.940Z,1009.90
2018-03-26T07:51:36.955Z,1009.90
2018-03-26T07:52:36.998Z,1009.92
2018-03-26T07:53:36.979Z,1009.91
2018-03-26T07:54:37.113Z,1009.93
2018-03-26T07:55:37.023Z,1009.91
2018-03-26T07:56:37.020Z,1009.88
2018-03-26T07:57:37.036Z,1009.91
2018-03-26T07:59:37.074Z,1009.96
2018-03-26T08:00:37.114Z,1009.98
2018-03-26T08:01:37.081Z,1010.00
2018-03-26T08:02:37.110Z,1010.00
2018-03-26T08:03:37.112Z,1010.06
2018-03-26T08:04:37.118Z,1010.02
2018-03-26T08:05:37.139Z,1010.04
2018-03-26T08:06:37.147Z,1010.02
2018-03-26T08:07:37.158Z,1010.01
2018-03-26T08:08:37.175Z,1010.01
2018-03-26T08:09:37.289Z,1010.00
2018-03-26T08:10:37.411Z,1010.04
2018-03-26T08:11:37.208Z,1009.99
2018-03-26T08:12:37.248Z,1010.04
2018-03-26T08:13:37.233Z,1010.03
2018-03-26T08:14:37.249Z,1010.06
2018-03-26T08:15:37.258Z,1010.11
2018-03-26T08:16:37.275Z,1010.13
2018-03-26T08:19:37.316Z,1010.17
2018-03-26T08:21:37.333Z,1010.10
2018-03-26T08:22:37.356Z,1010.16
2018-03-26T08:23:37.370Z,1010.13
2018-03-26T08:24:37.384Z,1010.16
2018-03-26T08:25:37.502Z,1010.20
2018-03-26T08:26:37.401Z,1010.23
2018-03-26T08:27:37.413Z,1010.25
2018-03-26T08:28:37.428Z,1010.24
2018-03-26T08:29:37.436Z,1010.27
2018-03-26T08:30:37.734Z,1010.29
2018-03-26T08:31:37.632Z,1010.27
2018-03-26T08:32:37.490Z,1010.32
2018-03-26T08:33:38.558Z,1010.25
2018-03-26T08:34:37.501Z,1010.27
2018-03-26T08:35:37.518Z,1010.28
2018-03-26T08:36:37.630Z,1010.31
2018-03-26T08:37:37.543Z,1010.30
2018-03-26T08:38:37.551Z,1010.38
2018-03-26T08:39:37.614Z,1010.37
2018-03-26T08:40:37.618Z,1010.36
2018-03-26T08:41:37.599Z,1010.35
2018-03-26T08:42:37.604Z,1010.41
2018-03-26T08:43:37.624Z,1010.40
2018-03-26T08:44:37.632Z,1010.41
2018-03-26T08:45:37.642Z,1010.42
2018-03-26T08:46:37.722Z,1010.44
2018-03-26T08:47:37.668Z,1010.46
2018-03-26T08:48:38.321Z,1010.45
2018-03-26T08:49:37.695Z,1010.47
2018-03-26T08:50:37.796Z,1010.48
2018-03-26T08:51:38.038Z,1010.50
2018-03-26T08:52:37.784Z,1010.46
2018-03-26T08:53:37.792Z,1010.48
2018-03-26T08:54:37.758Z,1010.46
2018-03-26T08:55:37.771Z,1010.44
2018-03-26T08:56:37.781Z,1010.46
2018-03-26T08:57:37.800Z,1010.44
2018-03-26T08:58:37.818Z,1010.45
2018-03-26T08:59:38.402Z,1010.45
2018-03-26T09:00:37.834Z,1010.43
2018-03-26T09:01:37.853Z,1010.43
2018-03-26T09:02:37.858Z,1010.42
2018-03-26T09:03:37.877Z,1010.40
2018-03-26T09:04:37.884Z,1010.42
2018-03-26T09:05:37.897Z,1010.47
2018-03-26T09:06:37.910Z,1010.44
2018-03-26T09:07:37.925Z,1010.41
2018-03-26T09:08:37.938Z,1010.38
2018-03-26T09:09:37.957Z,1010.41
2018-03-26T09:10:37.964Z,1010.43
2018-03-26T09:11:37.993Z,1010.41
2018-03-26T09:12:38.010Z,1010.39
2018-03-26T09:13:38.641Z,1010.39
2018-03-26T09:14:38.011Z,1010.39
2018-03-26T09:15:38.023Z,1010.41
2018-03-26T09:16:38.040Z,1010.45
2018-03-26T09:17:38.049Z,1010.45
2018-03-26T09:18:38.062Z,1010.44
2018-03-26T09:19:38.083Z,1010.41
2018-03-26T09:20:38.089Z,1010.50
2018-03-26T09:23:38.132Z,1010.49
2018-03-26T09:24:38.146Z,1010.49
2018-03-26T09:25:38.156Z,1010.48
2018-03-26T09:26:38.167Z,1010.52
2018-03-26T09:27:38.183Z,1010.52
2018-03-26T09:28:38.202Z,1010.49
2018-03-26T09:29:38.211Z,1010.54
2018-03-26T09:30:38.213Z,1010.52
2018-03-26T09:31:38.227Z,1010.58
2018-03-26T09:32:38.240Z,1010.56
2018-03-26T09:33:38.250Z,1010.56
2018-03-26T09:34:38.265Z,1010.56
2018-03-26T09:35:38.278Z,1010.54
2018-03-26T09:36:38.290Z,1010.54
2018-03-26T09:37:38.309Z,1010.58
2018-03-26T09:38:38.317Z,1010.58
2018-03-26T09:39:38.336Z,1010.54
2018-03-26T09:42:38.975Z,1010.59
2018-03-26T09:43:38.383Z,1010.59
2018-03-26T09:44:38.394Z,1010.59
2018-03-26T09:45:38.418Z,1010.63
2018-03-26T09:46:38.419Z,1010.54
2018-03-26T09:47:38.440Z,1010.58
2018-03-26T09:48:38.447Z,1010.55
2018-03-26T09:49:38.459Z,1010.57
2018-03-26T09:50:38.476Z,1010.58
2018-03-26T09:51:38.487Z,1010.61
2018-03-26T09:52:38.500Z,1010.59
2018-03-26T09:53:38.522Z,1010.54
2018-03-26T09:54:38.526Z,1010.53
2018-03-26T09:55:38.553Z,1010.56
2018-03-26T09:56:38.554Z,1010.55
2018-03-26T09:57:38.570Z,1010.55
2018-03-26T09:58:38.578Z,1010.57
2018-03-26T09:59:38.594Z,1010.53
2018-03-26T10:00:38.607Z,1010.55
2018-03-26T10:01:38.635Z,1010.56
2018-03-26T10:02:38.648Z,1010.56
2018-03-26T10:03:38.671Z,1010.57
2018-03-26T10:04:38.666Z,1010.53
2018-03-26T10:05:38.675Z,1010.58
2018-03-26T10:06:38.692Z,1010.59
2018-03-26T10:07:38.702Z,1010.59
2018-03-26T10:08:38.714Z,1010.59
2018-03-26T10:09:38.728Z,1010.62
2018-03-26T10:10:38.943Z,1010.65
2018-03-26T10:11:38.769Z,1010.61
2018-03-26T10:12:38.811Z,1010.63
2018-03-26T10:13:38.781Z,1010.65
2018-03-26T10:15:38.941Z,1010.64
2018-03-26T10:16:39.296Z,1010.64
2018-03-26T10:17:38.837Z,1010.64
2018-03-26T10:18:38.849Z,1010.64
2018-03-26T10:19:38.899Z,1010.65
2018-03-26T10:20:38.876Z,1010.66
2018-03-26T10:21:38.890Z,1010.65
2018-03-26T10:22:38.903Z,1010.61
2018-03-26T10:23:38.916Z,1010.61
2018-03-26T10:24:38.932Z,1010.65
2018-03-26T10:25:38.946Z,1010.66
2018-03-26T10:26:38.960Z,1010.64
2018-03-26T10:27:38.972Z,1010.65
2018-03-26T10:28:38.985Z,1010.70
2018-03-26T10:29:39.207Z,1010.73
2018-03-26T10:30:39.015Z,1010.76
2018-03-26T10:31:39.030Z,1010.72
2018-03-26T10:32:39.041Z,1010.74
2018-03-26T10:33:39.059Z,1010.72
2018-03-26T10:34:39.070Z,1010.74
2018-03-26T10:35:39.087Z,1010.71
2018-03-26T10:36:39.106Z,1010.71
2018-03-26T10:37:39.113Z,1010.76
2018-03-26T10:38:39.128Z,1010.78
2018-03-26T10:39:39.139Z,1010.79
2018-03-26T10:40:39.153Z,1010.79
2018-03-26T10:41:39.178Z,1010.77
2018-03-26T10:42:39.180Z,1010.80
2018-03-26T10:43:39.192Z,1010.82
2018-03-26T10:44:39.222Z,1010.77
2018-03-26T10:45:39.224Z,1010.76
2018-03-26T10:46:39.237Z,1010.76
2018-03-26T10:47:39.550Z,1010.77
2018-03-26T10:48:39.266Z,1010.81
2018-03-26T10:49:39.283Z,1010.82
2018-03-26T10:50:39.290Z,1010.80
2018-03-26T10:51:39.305Z,1010.83
2018-03-26T10:52:39.319Z,1010.82
2018-03-26T10:53:39.331Z,1010.84
2018-03-26T10:54:39.351Z,1010.81
2018-03-26T10:55:39.362Z,1010.82
2018-03-26T10:56:39.375Z,1010.85
2018-03-26T10:57:39.390Z,1010.83
2018-03-26T10:58:39.409Z,1010.89
2018-03-26T10:59:39.421Z,1010.85
2018-03-26T11:00:39.630Z,1010.86
2018-03-26T11:01:39.647Z,1010.86
2018-03-26T11:02:39.489Z,1010.87
2018-03-26T11:03:39.485Z,1010.86
2018-03-26T11:04:39.492Z,1010.83
2018-03-26T11:05:39.531Z,1010.85
2018-03-26T11:06:39.517Z,1010.88
2018-03-26T11:07:39.534Z,1010.87
2018-03-26T11:08:39.546Z,1010.81
2018-03-26T11:09:39.558Z,1010.85
2018-03-26T11:10:39.571Z,1010.86
2018-03-26T11:11:39.588Z,1010.83
2018-03-26T11:12:39.617Z,1010.84
2018-03-26T11:13:39.616Z,1010.88
2018-03-26T11:14:39.629Z,1010.85
2018-03-26T11:15:39.648Z,1010.85
2018-03-26T11:16:39.659Z,1010.87
2018-03-26T11:17:39.980Z,1010.87
2018-03-26T11:18:39.688Z,1010.79
2018-03-26T11:19:39.710Z,1010.80
2018-03-26T11:20:39.718Z,1010.78
2018-03-26T11:21:39.770Z,1010.84
2018-03-26T11:22:39.754Z,1010.81
2018-03-26T11:23:39.762Z,1010.82
2018-03-26T11:24:39.773Z,1010.80
2018-03-26T11:25:39.798Z,1010.77
2018-03-26T11:26:39.805Z,1010.76
2018-03-26T11:27:39.817Z,1010.75
2018-03-26T11:28:39.837Z,1010.77
2018-03-26T11:29:39.845Z,1010.73
2018-03-26T11:30:39.858Z,1010.73
2018-03-26T11:31:39.876Z,1010.76
2018-03-26T11:32:39.889Z,1010.74
2018-03-26T11:33:39.901Z,1010.74
2018-03-26T11:34:39.917Z,1010.81
2018-03-26T11:35:39.944Z,1010.77
2018-03-26T11:36:39.975Z,1010.80
2018-03-26T11:37:39.957Z,1010.76
2018-03-26T11:38:39.973Z,1010.77
2018-03-26T11:39:40.003Z,1010.71
2018-03-26T11:40:40.002Z,1010.70
2018-03-26T11:41:40.021Z,1010.72
2018-03-26T11:42:40.032Z,1010.74
2018-03-26T11:43:40.048Z,1010.77
2018-03-26T11:44:40.066Z,1010.77
2018-03-26T11:45:40.081Z,1010.81
2018-03-26T11:46:40.090Z,1010.83
2018-03-26T11:47:40.121Z,1010.81
2018-03-26T11:48:40.130Z,1010.77
2018-03-26T11:49:40.161Z,1010.78
2018-03-26T11:50:40.144Z,1010.76
2018-03-26T11:51:40.159Z,1010.72
2018-03-26T11:52:40.185Z,1010.77
2018-03-26T11:53:40.192Z,1010.80
2018-03-26T11:54:40.303Z,1010.76
2018-03-26T11:55:40.217Z,1010.80
2018-03-26T11:56:40.230Z,1010.82
2018-03-26T11:57:40.251Z,1010.84
2018-03-26T11:58:40.266Z,1010.79
2018-03-26T11:59:40.278Z,1010.78
2018-03-26T12:00:40.289Z,1010.84
2018-03-26T12:01:40.304Z,1010.83
2018-03-26T12:02:40.322Z,1010.77
2018-03-26T12:03:40.397Z,1010.81
2018-03-26T12:05:40.386Z,1010.75
2018-03-26T12:06:40.396Z,1010.89
2018-03-26T12:07:40.393Z,1010.82
2018-03-26T12:08:40.411Z,1010.82
2018-03-26T12:09:40.429Z,1010.79
2018-03-26T12:10:40.474Z,1010.83
2018-03-26T12:11:40.453Z,1010.83
2018-03-26T12:12:40.465Z,1010.84
2018-03-26T12:13:40.525Z,1010.83
2018-03-26T12:14:40.562Z,1010.78
2018-03-26T12:15:40.513Z,1010.81
2018-03-26T12:16:40.533Z,1010.83
2018-03-26T12:17:40.545Z,1010.80
2018-03-26T12:18:40.582Z,1010.84
2018-03-26T12:19:40.572Z,1010.81
2018-03-26T12:20:40.581Z,1010.85
2018-03-26T12:21:40.596Z,1010.83
2018-03-26T12:22:40.608Z,1010.85
2018-03-26T12:23:40.710Z,1010.87
2018-03-26T12:24:40.644Z,1010.83
2018-03-26T12:25:40.653Z,1010.81
2018-03-26T12:27:40.783Z,1010.79
2018-03-26T12:28:40.704Z,1010.82
2018-03-26T12:29:40.716Z,1010.82
2018-03-26T12:30:40.732Z,1010.79
2018-03-26T12:31:40.743Z,1010.80
2018-03-26T12:32:40.981Z,1010.77
2018-03-26T12:33:40.771Z,1010.81
2018-03-26T12:34:40.880Z,1010.79